sensor_id;sensor_type;location;lat;lon;timestamp;temperature;humidity
64987;DHT22;67903;52.108;9.358;2023-02-20T00:01:30;6.60;76.60
64987;DHT22;67903;52.108;9.358;2023-02-20T00:03:57;6.50;76.50
64987;DHT22;67903;52.108;9.358;2023-02-20T00:06:24;6.50;76.50
64987;DHT22;67903;52.108;9.358;2023-02-20T00:08:51;6.50;76.60
64987;DHT22;67903;52.108;9.358;2023-02-20T00:11:17;6.50;76.80
64987;DHT22;67903;52.108;9.358;2023-02-20T00:13:46;6.50;76.50
64987;DHT22;67903;52.108;9.358;2023-02-20T00:16:13;6.50;76.70
64987;DHT22;67903;52.108;9.358;2023-02-20T00:18:40;6.50;76.20
64987;DHT22;67903;52.108;9.358;2023-02-20T00:21:07;6.50;76.20
64987;DHT22;67903;52.108;9.358;2023-02-20T00:23:34;6.60;76.20
64987;DHT22;67903;52.108;9.358;2023-02-20T00:26:01;6.60;76.20
64987;DHT22;67903;52.108;9.358;2023-02-20T00:28:28;6.60;76.00
64987;DHT22;67903;52.108;9.358;2023-02-20T00:30:55;6.60;75.60
64987;DHT22;67903;52.108;9.358;2023-02-20T00:33:22;6.60;75.60
64987;DHT22;67903;52.108;9.358;2023-02-20T00:35:49;6.60;75.70
64987;DHT22;67903;52.108;9.358;2023-02-20T00:38:16;6.60;75.70
64987;DHT22;67903;52.108;9.358;2023-02-20T00:40:44;6.60;75.30
64987;DHT22;67903;52.108;9.358;2023-02-20T00:43:12;6.60;75.20
64987;DHT22;67903;52.108;9.358;2023-02-20T00:45:38;6.60;75.10
64987;DHT22;67903;52.108;9.358;2023-02-20T00:48:05;6.50;74.60
64987;DHT22;67903;52.108;9.358;2023-02-20T00:50:32;6.50;74.40
64987;DHT22;67903;52.108;9.358;2023-02-20T00:52:59;6.40;74.40
64987;DHT22;67903;52.108;9.358;2023-02-20T00:55:26;6.50;74.40
64987;DHT22;67903;52.108;9.358;2023-02-20T00:57:53;6.40;74.50
64987;DHT22;67903;52.108;9.358;2023-02-20T01:00:25;6.40;74.60
64987;DHT22;67903;52.108;9.358;2023-02-20T01:02:53;6.40;74.80
64987;DHT22;67903;52.108;9.358;2023-02-20T01:05:22;6.30;74.90
64987;DHT22;67903;52.108;9.358;2023-02-20T01:07:49;6.40;74.90
64987;DHT22;67903;52.108;9.358;2023-02-20T01:10:16;6.40;74.40
64987;DHT22;67903;52.108;9.358;2023-02-20T01:12:43;6.40;74.70
64987;DHT22;67903;52.108;9.358;2023-02-20T01:15:13;6.30;74.80
64987;DHT22;67903;52.108;9.358;2023-02-20T01:17:40;6.30;75.10
64987;DHT22;67903;52.108;9.358;2023-02-20T01:20:08;6.40;74.80
64987;DHT22;67903;52.108;9.358;2023-02-20T01:22:35;6.30;75.00
64987;DHT22;67903;52.108;9.358;2023-02-20T01:25:02;6.30;75.00
64987;DHT22;67903;52.108;9.358;2023-02-20T01:27:29;6.30;75.20
64987;DHT22;67903;52.108;9.358;2023-02-20T01:29:56;6.30;75.20
64987;DHT22;67903;52.108;9.358;2023-02-20T01:32:22;6.30;75.00
64987;DHT22;67903;52.108;9.358;2023-02-20T01:34:49;6.20;75.40
64987;DHT22;67903;52.108;9.358;2023-02-20T01:37:16;6.30;75.50
64987;DHT22;67903;52.108;9.358;2023-02-20T01:39:46;6.30;75.40
64987;DHT22;67903;52.108;9.358;2023-02-20T01:42:18;6.30;75.50
64987;DHT22;67903;52.108;9.358;2023-02-20T01:44:45;6.20;75.70
64987;DHT22;67903;52.108;9.358;2023-02-20T01:47:22;6.20;75.70
64987;DHT22;67903;52.108;9.358;2023-02-20T01:52:25;6.10;76.40
64987;DHT22;67903;52.108;9.358;2023-02-20T01:57:32;6.00;76.80
64987;DHT22;67903;52.108;9.358;2023-02-20T02:00:07;6.00;77.00
64987;DHT22;67903;52.108;9.358;2023-02-20T02:02:49;6.00;77.20
64987;DHT22;67903;52.108;9.358;2023-02-20T02:05:20;6.00;77.00
64987;DHT22;67903;52.108;9.358;2023-02-20T02:07:51;6.00;77.20
64987;DHT22;67903;52.108;9.358;2023-02-20T02:10:24;6.00;77.20
64987;DHT22;67903;52.108;9.358;2023-02-20T02:12:52;6.00;77.20
64987;DHT22;67903;52.108;9.358;2023-02-20T02:15:21;5.90;77.40
64987;DHT22;67903;52.108;9.358;2023-02-20T02:26:13;5.90;77.50
64987;DHT22;67903;52.108;9.358;2023-02-20T02:37:23;5.90;77.30
64987;DHT22;67903;52.108;9.358;2023-02-20T02:40:10;5.80;77.80
64987;DHT22;67903;52.108;9.358;2023-02-20T02:42:50;5.70;78.40
64987;DHT22;67903;52.108;9.358;2023-02-20T02:45:47;5.70;78.00
64987;DHT22;67903;52.108;9.358;2023-02-20T02:48:47;5.90;77.80
64987;DHT22;67903;52.108;9.358;2023-02-20T02:51:17;5.90;77.60
64987;DHT22;67903;52.108;9.358;2023-02-20T02:54:13;5.90;77.10
64987;DHT22;67903;52.108;9.358;2023-02-20T02:56:42;5.90;77.00
64987;DHT22;67903;52.108;9.358;2023-02-20T02:59:15;5.90;77.40
64987;DHT22;67903;52.108;9.358;2023-02-20T03:01:47;6.00;77.10
64987;DHT22;67903;52.108;9.358;2023-02-20T03:04:14;6.10;76.90
64987;DHT22;67903;52.108;9.358;2023-02-20T03:06:51;6.00;77.10
64987;DHT22;67903;52.108;9.358;2023-02-20T03:09:28;6.00;77.00
64987;DHT22;67903;52.108;9.358;2023-02-20T03:11:58;6.00;77.00
64987;DHT22;67903;52.108;9.358;2023-02-20T03:14:53;6.00;77.10
64987;DHT22;67903;52.108;9.358;2023-02-20T03:18:10;6.10;76.70
64987;DHT22;67903;52.108;9.358;2023-02-20T03:20:42;6.00;77.20
64987;DHT22;67903;52.108;9.358;2023-02-20T03:23:14;6.10;77.00
64987;DHT22;67903;52.108;9.358;2023-02-20T03:25:52;6.10;76.70
64987;DHT22;67903;52.108;9.358;2023-02-20T03:28:29;6.10;76.80
64987;DHT22;67903;52.108;9.358;2023-02-20T03:34:03;6.10;77.00
64987;DHT22;67903;52.108;9.358;2023-02-20T03:37:00;6.10;76.80
64987;DHT22;67903;52.108;9.358;2023-02-20T03:39:52;6.10;76.90
64987;DHT22;67903;52.108;9.358;2023-02-20T03:42:42;6.00;77.10
64987;DHT22;67903;52.108;9.358;2023-02-20T03:45:35;6.00;77.80
64987;DHT22;67903;52.108;9.358;2023-02-20T03:48:09;6.00;77.50
64987;DHT22;67903;52.108;9.358;2023-02-20T03:50:37;6.00;77.80
64987;DHT22;67903;52.108;9.358;2023-02-20T03:53:25;6.10;77.50
64987;DHT22;67903;52.108;9.358;2023-02-20T03:55:54;6.00;77.60
64987;DHT22;67903;52.108;9.358;2023-02-20T03:58:23;6.10;77.50
64987;DHT22;67903;52.108;9.358;2023-02-20T04:00:52;6.10;77.60
64987;DHT22;67903;52.108;9.358;2023-02-20T04:03:25;6.20;77.30
64987;DHT22;67903;52.108;9.358;2023-02-20T04:05:54;6.20;77.10
64987;DHT22;67903;52.108;9.358;2023-02-20T04:08:38;6.40;77.00
64987;DHT22;67903;52.108;9.358;2023-02-20T04:14:00;6.40;77.00
64987;DHT22;67903;52.108;9.358;2023-02-20T04:16:29;6.40;77.00
64987;DHT22;67903;52.108;9.358;2023-02-20T04:18:57;6.50;76.70
64987;DHT22;67903;52.108;9.358;2023-02-20T04:21:35;6.50;76.60
64987;DHT22;67903;52.108;9.358;2023-02-20T04:24:07;6.50;76.80
64987;DHT22;67903;52.108;9.358;2023-02-20T04:26:35;6.50;77.00
64987;DHT22;67903;52.108;9.358;2023-02-20T04:29:03;6.50;76.70
64987;DHT22;67903;52.108;9.358;2023-02-20T04:31:32;6.60;76.90
64987;DHT22;67903;52.108;9.358;2023-02-20T04:33:59;6.50;76.70
64987;DHT22;67903;52.108;9.358;2023-02-20T04:36:26;6.60;76.60
64987;DHT22;67903;52.108;9.358;2023-02-20T04:38:56;6.50;76.70
64987;DHT22;67903;52.108;9.358;2023-02-20T04:41:27;6.50;76.90
64987;DHT22;67903;52.108;9.358;2023-02-20T04:43:54;6.60;76.70
64987;DHT22;67903;52.108;9.358;2023-02-20T04:46:43;6.50;76.90
64987;DHT22;67903;52.108;9.358;2023-02-20T04:49:09;6.60;76.70
64987;DHT22;67903;52.108;9.358;2023-02-20T04:51:38;6.60;76.60
64987;DHT22;67903;52.108;9.358;2023-02-20T04:54:05;6.60;76.50
64987;DHT22;67903;52.108;9.358;2023-02-20T04:56:31;6.60;76.60
64987;DHT22;67903;52.108;9.358;2023-02-20T04:58:59;6.50;76.40
64987;DHT22;67903;52.108;9.358;2023-02-20T05:01:26;6.60;76.60
64987;DHT22;67903;52.108;9.358;2023-02-20T05:03:53;6.60;76.50
64987;DHT22;67903;52.108;9.358;2023-02-20T05:06:20;6.60;76.20
64987;DHT22;67903;52.108;9.358;2023-02-20T05:08:47;6.60;76.40
64987;DHT22;67903;52.108;9.358;2023-02-20T05:11:16;6.70;75.50
64987;DHT22;67903;52.108;9.358;2023-02-20T05:13:43;6.70;75.50
64987;DHT22;67903;52.108;9.358;2023-02-20T05:16:10;6.70;75.70
64987;DHT22;67903;52.108;9.358;2023-02-20T05:18:37;6.70;75.70
64987;DHT22;67903;52.108;9.358;2023-02-20T05:21:04;6.70;75.70
64987;DHT22;67903;52.108;9.358;2023-02-20T05:23:49;6.80;75.00
64987;DHT22;67903;52.108;9.358;2023-02-20T05:26:18;6.80;74.90
64987;DHT22;67903;52.108;9.358;2023-02-20T05:28:46;6.80;74.40
64987;DHT22;67903;52.108;9.358;2023-02-20T05:31:13;6.90;74.00
64987;DHT22;67903;52.108;9.358;2023-02-20T05:33:43;7.00;73.70
64987;DHT22;67903;52.108;9.358;2023-02-20T05:36:10;7.00;73.70
64987;DHT22;67903;52.108;9.358;2023-02-20T05:38:37;7.00;73.80
64987;DHT22;67903;52.108;9.358;2023-02-20T05:41:04;7.00;73.80
64987;DHT22;67903;52.108;9.358;2023-02-20T05:43:30;7.00;73.30
64987;DHT22;67903;52.108;9.358;2023-02-20T05:45:57;7.00;73.50
64987;DHT22;67903;52.108;9.358;2023-02-20T05:48:24;7.20;73.10
64987;DHT22;67903;52.108;9.358;2023-02-20T05:50:51;7.10;73.40
64987;DHT22;67903;52.108;9.358;2023-02-20T05:53:19;7.10;73.40
64987;DHT22;67903;52.108;9.358;2023-02-20T05:55:46;7.10;73.50
64987;DHT22;67903;52.108;9.358;2023-02-20T05:58:13;7.00;73.50
64987;DHT22;67903;52.108;9.358;2023-02-20T06:00:40;7.00;74.00
64987;DHT22;67903;52.108;9.358;2023-02-20T06:03:07;7.00;73.80
64987;DHT22;67903;52.108;9.358;2023-02-20T06:05:34;7.00;73.80
64987;DHT22;67903;52.108;9.358;2023-02-20T06:08:01;7.00;73.70
64987;DHT22;67903;52.108;9.358;2023-02-20T06:10:28;7.00;73.70
64987;DHT22;67903;52.108;9.358;2023-02-20T06:12:55;7.00;73.60
64987;DHT22;67903;52.108;9.358;2023-02-20T06:15:22;7.00;73.80
64987;DHT22;67903;52.108;9.358;2023-02-20T06:17:49;7.00;74.10
64987;DHT22;67903;52.108;9.358;2023-02-20T06:20:16;7.00;74.00
64987;DHT22;67903;52.108;9.358;2023-02-20T06:22:43;7.00;74.20
64987;DHT22;67903;52.108;9.358;2023-02-20T06:25:10;7.00;74.10
64987;DHT22;67903;52.108;9.358;2023-02-20T06:27:38;7.10;74.20
64987;DHT22;67903;52.108;9.358;2023-02-20T06:30:05;7.00;74.20
64987;DHT22;67903;52.108;9.358;2023-02-20T06:32:32;7.00;74.30
64987;DHT22;67903;52.108;9.358;2023-02-20T06:34:59;7.00;74.10
64987;DHT22;67903;52.108;9.358;2023-02-20T06:37:26;7.00;74.30
64987;DHT22;67903;52.108;9.358;2023-02-20T06:39:52;7.00;74.40
64987;DHT22;67903;52.108;9.358;2023-02-20T06:42:19;6.90;74.50
64987;DHT22;67903;52.108;9.358;2023-02-20T06:44:46;7.00;74.60
64987;DHT22;67903;52.108;9.358;2023-02-20T06:47:14;7.00;74.70
64987;DHT22;67903;52.108;9.358;2023-02-20T06:49:41;7.00;74.00
64987;DHT22;67903;52.108;9.358;2023-02-20T06:52:09;7.00;74.10
64987;DHT22;67903;52.108;9.358;2023-02-20T06:54:36;7.00;74.30
64987;DHT22;67903;52.108;9.358;2023-02-20T06:57:03;7.00;74.10
64987;DHT22;67903;52.108;9.358;2023-02-20T06:59:30;7.00;74.10
64987;DHT22;67903;52.108;9.358;2023-02-20T07:01:56;7.00;74.00
64987;DHT22;67903;52.108;9.358;2023-02-20T07:04:25;7.00;74.00
64987;DHT22;67903;52.108;9.358;2023-02-20T07:06:55;7.10;74.10
64987;DHT22;67903;52.108;9.358;2023-02-20T07:09:22;7.00;73.90
64987;DHT22;67903;52.108;9.358;2023-02-20T07:11:51;7.20;74.40
64987;DHT22;67903;52.108;9.358;2023-02-20T07:14:18;7.10;74.50
64987;DHT22;67903;52.108;9.358;2023-02-20T07:16:45;7.00;74.30
64987;DHT22;67903;52.108;9.358;2023-02-20T07:19:12;7.00;74.50
64987;DHT22;67903;52.108;9.358;2023-02-20T07:21:39;7.00;74.70
64987;DHT22;67903;52.108;9.358;2023-02-20T07:24:06;7.00;74.90
64987;DHT22;67903;52.108;9.358;2023-02-20T07:26:33;7.00;74.70
64987;DHT22;67903;52.108;9.358;2023-02-20T07:29:02;6.90;74.70
64987;DHT22;67903;52.108;9.358;2023-02-20T07:31:30;6.90;75.00
64987;DHT22;67903;52.108;9.358;2023-02-20T07:33:57;6.90;74.70
64987;DHT22;67903;52.108;9.358;2023-02-20T07:36:24;6.90;74.70
64987;DHT22;67903;52.108;9.358;2023-02-20T07:38:56;6.90;75.20
64987;DHT22;67903;52.108;9.358;2023-02-20T07:41:24;6.90;75.40
64987;DHT22;67903;52.108;9.358;2023-02-20T07:43:51;6.90;75.00
64987;DHT22;67903;52.108;9.358;2023-02-20T07:46:18;6.90;75.00
64987;DHT22;67903;52.108;9.358;2023-02-20T07:48:46;6.90;75.00
64987;DHT22;67903;52.108;9.358;2023-02-20T07:51:13;6.90;75.00
64987;DHT22;67903;52.108;9.358;2023-02-20T07:53:47;6.90;75.10
64987;DHT22;67903;52.108;9.358;2023-02-20T07:56:14;7.00;75.20
64987;DHT22;67903;52.108;9.358;2023-02-20T07:58:41;7.00;74.80
64987;DHT22;67903;52.108;9.358;2023-02-20T08:01:08;6.90;75.00
64987;DHT22;67903;52.108;9.358;2023-02-20T08:03:35;7.00;75.20
64987;DHT22;67903;52.108;9.358;2023-02-20T08:06:01;7.00;75.10
64987;DHT22;67903;52.108;9.358;2023-02-20T08:08:28;7.00;75.10
64987;DHT22;67903;52.108;9.358;2023-02-20T08:10:55;7.00;75.20
64987;DHT22;67903;52.108;9.358;2023-02-20T08:13:34;7.00;75.10
64987;DHT22;67903;52.108;9.358;2023-02-20T08:16:01;7.00;75.40
64987;DHT22;67903;52.108;9.358;2023-02-20T08:18:28;7.00;75.00
64987;DHT22;67903;52.108;9.358;2023-02-20T08:20:55;7.00;75.30
64987;DHT22;67903;52.108;9.358;2023-02-20T08:23:23;6.90;75.20
64987;DHT22;67903;52.108;9.358;2023-02-20T08:25:50;6.90;75.10
64987;DHT22;67903;52.108;9.358;2023-02-20T08:28:18;6.90;75.00
64987;DHT22;67903;52.108;9.358;2023-02-20T08:30:45;7.00;74.90
64987;DHT22;67903;52.108;9.358;2023-02-20T08:33:12;7.00;75.00
64987;DHT22;67903;52.108;9.358;2023-02-20T08:35:39;7.00;74.60
64987;DHT22;67903;52.108;9.358;2023-02-20T08:38:20;7.00;74.60
64987;DHT22;67903;52.108;9.358;2023-02-20T08:40:47;7.00;74.40
64987;DHT22;67903;52.108;9.358;2023-02-20T08:43:14;7.00;74.20
64987;DHT22;67903;52.108;9.358;2023-02-20T08:45:41;7.10;74.40
64987;DHT22;67903;52.108;9.358;2023-02-20T08:48:08;7.20;74.20
64987;DHT22;67903;52.108;9.358;2023-02-20T08:50:35;7.20;73.80
64987;DHT22;67903;52.108;9.358;2023-02-20T08:53:02;7.20;73.80
64987;DHT22;67903;52.108;9.358;2023-02-20T08:55:28;7.20;73.70
64987;DHT22;67903;52.108;9.358;2023-02-20T08:57:55;7.20;73.80
64987;DHT22;67903;52.108;9.358;2023-02-20T09:00:22;7.20;73.80
64987;DHT22;67903;52.108;9.358;2023-02-20T09:02:49;7.20;73.70
64987;DHT22;67903;52.108;9.358;2023-02-20T09:05:17;7.20;74.00
64987;DHT22;67903;52.108;9.358;2023-02-20T09:07:43;7.20;73.90
64987;DHT22;67903;52.108;9.358;2023-02-20T09:10:11;7.20;73.90
64987;DHT22;67903;52.108;9.358;2023-02-20T09:12:38;7.20;74.10
64987;DHT22;67903;52.108;9.358;2023-02-20T09:15:11;7.30;74.00
64987;DHT22;67903;52.108;9.358;2023-02-20T09:17:38;7.20;73.90
64987;DHT22;67903;52.108;9.358;2023-02-20T09:20:05;7.20;74.00
64987;DHT22;67903;52.108;9.358;2023-02-20T09:22:35;7.30;74.00
64987;DHT22;67903;52.108;9.358;2023-02-20T09:25:03;7.30;74.10
64987;DHT22;67903;52.108;9.358;2023-02-20T09:27:30;7.40;74.00
64987;DHT22;67903;52.108;9.358;2023-02-20T09:29:57;7.40;74.00
64987;DHT22;67903;52.108;9.358;2023-02-20T09:32:24;7.40;73.90
64987;DHT22;67903;52.108;9.358;2023-02-20T09:34:51;7.50;73.90
64987;DHT22;67903;52.108;9.358;2023-02-20T09:37:18;7.50;74.10
64987;DHT22;67903;52.108;9.358;2023-02-20T09:39:44;7.50;74.00
64987;DHT22;67903;52.108;9.358;2023-02-20T09:42:36;7.40;74.30
64987;DHT22;67903;52.108;9.358;2023-02-20T09:45:13;7.20;74.70
64987;DHT22;67903;52.108;9.358;2023-02-20T09:48:16;7.20;74.90
64987;DHT22;67903;52.108;9.358;2023-02-20T09:50:54;7.20;75.20
64987;DHT22;67903;52.108;9.358;2023-02-20T09:56:20;7.40;75.00
64987;DHT22;67903;52.108;9.358;2023-02-20T10:02:28;7.30;75.40
64987;DHT22;67903;52.108;9.358;2023-02-20T10:04:57;7.20;75.40
64987;DHT22;67903;52.108;9.358;2023-02-20T10:07:33;7.20;75.60
64987;DHT22;67903;52.108;9.358;2023-02-20T10:10:17;7.20;75.80
64987;DHT22;67903;52.108;9.358;2023-02-20T10:19:01;7.30;75.90
64987;DHT22;67903;52.108;9.358;2023-02-20T10:21:44;7.20;76.10
64987;DHT22;67903;52.108;9.358;2023-02-20T10:27:17;7.30;76.50
64987;DHT22;67903;52.108;9.358;2023-02-20T10:29:46;7.30;76.20
64987;DHT22;67903;52.108;9.358;2023-02-20T10:32:17;7.30;76.20
64987;DHT22;67903;52.108;9.358;2023-02-20T10:35:09;7.30;76.20
64987;DHT22;67903;52.108;9.358;2023-02-20T10:37:41;7.20;76.50
64987;DHT22;67903;52.108;9.358;2023-02-20T10:40:25;7.20;76.40
64987;DHT22;67903;52.108;9.358;2023-02-20T10:43:04;7.20;76.60
64987;DHT22;67903;52.108;9.358;2023-02-20T10:48:16;7.30;76.70
64987;DHT22;67903;52.108;9.358;2023-02-20T10:51:10;7.30;76.70
64987;DHT22;67903;52.108;9.358;2023-02-20T10:53:53;7.20;77.00
64987;DHT22;67903;52.108;9.358;2023-02-20T10:56:33;7.30;76.80
64987;DHT22;67903;52.108;9.358;2023-02-20T11:01:39;7.30;76.70
64987;DHT22;67903;52.108;9.358;2023-02-20T11:04:16;7.30;76.70
64987;DHT22;67903;52.108;9.358;2023-02-20T11:06:53;7.30;76.80
64987;DHT22;67903;52.108;9.358;2023-02-20T11:09:21;7.30;76.90
64987;DHT22;67903;52.108;9.358;2023-02-20T11:11:48;7.30;77.00
64987;DHT22;67903;52.108;9.358;2023-02-20T11:17:15;7.40;77.10
64987;DHT22;67903;52.108;9.358;2023-02-20T11:19:47;7.30;77.10
64987;DHT22;67903;52.108;9.358;2023-02-20T11:22:15;7.30;77.10
64987;DHT22;67903;52.108;9.358;2023-02-20T11:24:45;7.30;77.20
64987;DHT22;67903;52.108;9.358;2023-02-20T11:27:21;7.40;77.20
64987;DHT22;67903;52.108;9.358;2023-02-20T11:29:55;7.30;77.20
64987;DHT22;67903;52.108;9.358;2023-02-20T11:32:38;7.30;77.50
64987;DHT22;67903;52.108;9.358;2023-02-20T11:40:45;7.40;77.50
64987;DHT22;67903;52.108;9.358;2023-02-20T11:45:39;7.40;77.90
64987;DHT22;67903;52.108;9.358;2023-02-20T11:48:09;7.40;78.00
64987;DHT22;67903;52.108;9.358;2023-02-20T11:50:39;7.40;77.90
64987;DHT22;67903;52.108;9.358;2023-02-20T11:53:10;7.40;77.50
64987;DHT22;67903;52.108;9.358;2023-02-20T11:55:42;7.40;77.90
64987;DHT22;67903;52.108;9.358;2023-02-20T11:58:25;7.50;77.60
64987;DHT22;67903;52.108;9.358;2023-02-20T12:00:54;7.50;77.50
64987;DHT22;67903;52.108;9.358;2023-02-20T12:03:23;7.50;77.80
64987;DHT22;67903;52.108;9.358;2023-02-20T12:05:51;7.50;77.70
64987;DHT22;67903;52.108;9.358;2023-02-20T12:11:15;7.50;77.90
64987;DHT22;67903;52.108;9.358;2023-02-20T12:13:44;7.50;78.00
64987;DHT22;67903;52.108;9.358;2023-02-20T12:16:29;7.50;78.10
64987;DHT22;67903;52.108;9.358;2023-02-20T12:19:26;7.50;78.40
64987;DHT22;67903;52.108;9.358;2023-02-20T12:24:55;7.50;78.60
64987;DHT22;67903;52.108;9.358;2023-02-20T12:33:18;7.50;78.50
64987;DHT22;67903;52.108;9.358;2023-02-20T12:36:20;7.60;78.50
64987;DHT22;67903;52.108;9.358;2023-02-20T12:50:10;7.50;79.00
64987;DHT22;67903;52.108;9.358;2023-02-20T12:52:54;7.60;79.10
64987;DHT22;67903;52.108;9.358;2023-02-20T12:55:50;7.60;79.00
64987;DHT22;67903;52.108;9.358;2023-02-20T12:58:49;7.60;79.00
64987;DHT22;67903;52.108;9.358;2023-02-20T13:01:20;7.50;79.30
64987;DHT22;67903;52.108;9.358;2023-02-20T13:04:28;7.50;79.40
64987;DHT22;67903;52.108;9.358;2023-02-20T13:09:38;7.60;79.30
64987;DHT22;67903;52.108;9.358;2023-02-20T13:12:13;7.70;79.20
64987;DHT22;67903;52.108;9.358;2023-02-20T13:17:39;7.70;79.40
64987;DHT22;67903;52.108;9.358;2023-02-20T13:20:25;7.60;79.70
64987;DHT22;67903;52.108;9.358;2023-02-20T13:23:03;7.60;79.70
64987;DHT22;67903;52.108;9.358;2023-02-20T13:25:41;7.60;79.70
64987;DHT22;67903;52.108;9.358;2023-02-20T13:30:38;7.60;80.70
64987;DHT22;67903;52.108;9.358;2023-02-20T13:35:57;7.50;81.40
64987;DHT22;67903;52.108;9.358;2023-02-20T13:38:26;7.50;81.80
64987;DHT22;67903;52.108;9.358;2023-02-20T13:41:01;7.50;81.70
64987;DHT22;67903;52.108;9.358;2023-02-20T13:43:33;7.50;81.40
64987;DHT22;67903;52.108;9.358;2023-02-20T13:56:53;7.60;81.00
64987;DHT22;67903;52.108;9.358;2023-02-20T13:59:22;7.70;80.80
64987;DHT22;67903;52.108;9.358;2023-02-20T14:04:39;7.80;80.70
64987;DHT22;67903;52.108;9.358;2023-02-20T14:07:33;7.80;80.80
64987;DHT22;67903;52.108;9.358;2023-02-20T14:12:45;7.90;80.60
64987;DHT22;67903;52.108;9.358;2023-02-20T14:15:18;7.90;80.70
64987;DHT22;67903;52.108;9.358;2023-02-20T14:17:46;7.90;80.80
64987;DHT22;67903;52.108;9.358;2023-02-20T14:20:32;7.90;80.80
64987;DHT22;67903;52.108;9.358;2023-02-20T14:23:08;8.00;80.80
64987;DHT22;67903;52.108;9.358;2023-02-20T14:25:36;7.90;81.00
64987;DHT22;67903;52.108;9.358;2023-02-20T14:28:10;7.90;80.90
64987;DHT22;67903;52.108;9.358;2023-02-20T14:30:38;7.80;81.20
64987;DHT22;67903;52.108;9.358;2023-02-20T14:33:18;7.90;81.30
64987;DHT22;67903;52.108;9.358;2023-02-20T14:41:10;7.80;81.50
64987;DHT22;67903;52.108;9.358;2023-02-20T14:43:37;7.80;81.40
64987;DHT22;67903;52.108;9.358;2023-02-20T14:46:07;7.80;81.10
64987;DHT22;67903;52.108;9.358;2023-02-20T14:48:36;7.80;81.10
64987;DHT22;67903;52.108;9.358;2023-02-20T14:53:36;7.90;80.90
64987;DHT22;67903;52.108;9.358;2023-02-20T14:56:15;8.00;80.80
64987;DHT22;67903;52.108;9.358;2023-02-20T14:58:46;8.00;80.90
64987;DHT22;67903;52.108;9.358;2023-02-20T15:01:35;8.00;80.80
64987;DHT22;67903;52.108;9.358;2023-02-20T15:04:16;8.00;80.70
64987;DHT22;67903;52.108;9.358;2023-02-20T15:06:48;8.00;80.80
64987;DHT22;67903;52.108;9.358;2023-02-20T15:09:16;8.00;80.80
64987;DHT22;67903;52.108;9.358;2023-02-20T15:11:53;8.00;80.80
64987;DHT22;67903;52.108;9.358;2023-02-20T15:14:26;8.00;80.80
64987;DHT22;67903;52.108;9.358;2023-02-20T15:17:24;8.00;80.70
64987;DHT22;67903;52.108;9.358;2023-02-20T15:19:51;8.00;81.00
64987;DHT22;67903;52.108;9.358;2023-02-20T15:22:35;8.00;81.10
64987;DHT22;67903;52.108;9.358;2023-02-20T15:25:26;8.00;80.90
64987;DHT22;67903;52.108;9.358;2023-02-20T15:28:04;8.00;81.00
64987;DHT22;67903;52.108;9.358;2023-02-20T15:30:32;8.00;81.30
64987;DHT22;67903;52.108;9.358;2023-02-20T15:32:59;8.00;81.10
64987;DHT22;67903;52.108;9.358;2023-02-20T15:35:28;8.00;81.40
64987;DHT22;67903;52.108;9.358;2023-02-20T15:37:59;8.00;81.30
64987;DHT22;67903;52.108;9.358;2023-02-20T15:40:30;8.00;81.40
64987;DHT22;67903;52.108;9.358;2023-02-20T15:42:57;8.00;81.30
64987;DHT22;67903;52.108;9.358;2023-02-20T15:45:33;8.00;81.30
64987;DHT22;67903;52.108;9.358;2023-02-20T15:48:04;8.00;81.60
64987;DHT22;67903;52.108;9.358;2023-02-20T15:50:32;8.00;81.60
64987;DHT22;67903;52.108;9.358;2023-02-20T15:53:01;8.00;81.70
64987;DHT22;67903;52.108;9.358;2023-02-20T15:55:31;8.00;81.60
64987;DHT22;67903;52.108;9.358;2023-02-20T15:57:58;8.00;81.70
64987;DHT22;67903;52.108;9.358;2023-02-20T16:00:29;8.00;81.70
64987;DHT22;67903;52.108;9.358;2023-02-20T16:03:01;8.00;81.70
64987;DHT22;67903;52.108;9.358;2023-02-20T16:05:28;8.00;81.80
64987;DHT22;67903;52.108;9.358;2023-02-20T16:07:55;8.00;82.00
64987;DHT22;67903;52.108;9.358;2023-02-20T16:10:22;8.00;81.80
64987;DHT22;67903;52.108;9.358;2023-02-20T16:12:52;7.90;82.10
64987;DHT22;67903;52.108;9.358;2023-02-20T16:15:21;7.80;82.50
64987;DHT22;67903;52.108;9.358;2023-02-20T16:17:48;7.80;82.60
64987;DHT22;67903;52.108;9.358;2023-02-20T16:20:16;7.80;82.90
64987;DHT22;67903;52.108;9.358;2023-02-20T16:22:43;7.80;83.30
64987;DHT22;67903;52.108;9.358;2023-02-20T16:25:11;7.80;83.70
64987;DHT22;67903;52.108;9.358;2023-02-20T16:27:38;7.80;83.80
64987;DHT22;67903;52.108;9.358;2023-02-20T16:30:06;7.80;84.20
64987;DHT22;67903;52.108;9.358;2023-02-20T16:32:33;7.70;84.60
64987;DHT22;67903;52.108;9.358;2023-02-20T16:35:00;7.60;84.90
64987;DHT22;67903;52.108;9.358;2023-02-20T16:37:27;7.60;85.20
64987;DHT22;67903;52.108;9.358;2023-02-20T16:39:54;7.50;85.20
64987;DHT22;67903;52.108;9.358;2023-02-20T16:42:27;7.60;85.20
64987;DHT22;67903;52.108;9.358;2023-02-20T16:44:55;7.50;85.30
64987;DHT22;67903;52.108;9.358;2023-02-20T16:47:27;7.50;85.10
64987;DHT22;67903;52.108;9.358;2023-02-20T16:49:53;7.50;85.30
64987;DHT22;67903;52.108;9.358;2023-02-20T16:52:30;7.50;85.00
64987;DHT22;67903;52.108;9.358;2023-02-20T16:54:58;7.60;84.80
64987;DHT22;67903;52.108;9.358;2023-02-20T16:57:26;7.60;85.00
64987;DHT22;67903;52.108;9.358;2023-02-20T16:59:58;7.60;84.80
64987;DHT22;67903;52.108;9.358;2023-02-20T17:02:27;7.60;84.50
64987;DHT22;67903;52.108;9.358;2023-02-20T17:04:55;7.60;84.50
64987;DHT22;67903;52.108;9.358;2023-02-20T17:07:23;7.60;84.60
64987;DHT22;67903;52.108;9.358;2023-02-20T17:09:50;7.60;84.50
64987;DHT22;67903;52.108;9.358;2023-02-20T17:12:19;7.60;84.40
64987;DHT22;67903;52.108;9.358;2023-02-20T17:14:46;7.60;84.10
64987;DHT22;67903;52.108;9.358;2023-02-20T17:17:14;7.80;83.90
64987;DHT22;67903;52.108;9.358;2023-02-20T17:19:42;7.80;83.80
64987;DHT22;67903;52.108;9.358;2023-02-20T17:22:11;7.80;83.50
64987;DHT22;67903;52.108;9.358;2023-02-20T17:24:39;7.80;83.40
64987;DHT22;67903;52.108;9.358;2023-02-20T17:27:08;7.80;83.50
64987;DHT22;67903;52.108;9.358;2023-02-20T17:29:36;7.80;83.20
64987;DHT22;67903;52.108;9.358;2023-02-20T17:32:03;7.80;83.00
64987;DHT22;67903;52.108;9.358;2023-02-20T17:34:30;7.80;83.10
64987;DHT22;67903;52.108;9.358;2023-02-20T17:36:57;7.80;83.10
64987;DHT22;67903;52.108;9.358;2023-02-20T17:39:24;7.80;83.00
64987;DHT22;67903;52.108;9.358;2023-02-20T17:41:52;7.80;83.40
64987;DHT22;67903;52.108;9.358;2023-02-20T17:44:23;7.80;83.70
64987;DHT22;67903;52.108;9.358;2023-02-20T17:46:51;7.80;84.00
64987;DHT22;67903;52.108;9.358;2023-02-20T17:49:19;7.80;84.10
64987;DHT22;67903;52.108;9.358;2023-02-20T17:51:50;7.80;84.60
64987;DHT22;67903;52.108;9.358;2023-02-20T17:54:18;7.70;84.90
64987;DHT22;67903;52.108;9.358;2023-02-20T17:56:49;7.60;85.00
64987;DHT22;67903;52.108;9.358;2023-02-20T17:59:16;7.60;85.10
64987;DHT22;67903;52.108;9.358;2023-02-20T18:01:44;7.60;85.30
64987;DHT22;67903;52.108;9.358;2023-02-20T18:04:11;7.60;85.40
64987;DHT22;67903;52.108;9.358;2023-02-20T18:06:38;7.60;85.50
64987;DHT22;67903;52.108;9.358;2023-02-20T18:09:07;7.60;85.40